Time;durP1;ratioP1;P1;durP2;ratioP2;P2;SDS_P1;SDS_P2;PMS_P1;PMS_P2;Temp;Humidity;BMP_temperature;BMP_pressure;BME280_temperature;BME280_humidity;BME280_pressure;Samples;Min_cycle;Max_cycle;Signal;HPM_P1;HPM_P2
2021/12/14 00:01:42;;;;;;;41.10;12.43;;;;;;;4.68;100.00;101892.28;5005068;28;20215;-72
2021/12/14 00:04:13;;;;;;;43.50;11.07;;;;;;;4.66;100.00;101888.81;5008061;28;20589;-72
2021/12/14 00:06:41;;;;;;;53.17;12.10;;;;;;;4.66;100.00;101890.50;5008117;28;20203;-71
2021/12/14 00:09:10;;;;;;;39.33;11.97;;;;;;;4.67;100.00;101881.94;5006220;28;20279;-71
2021/12/14 00:11:55;;;;;;;46.03;11.73;;;;;;;4.68;100.00;101875.94;5004867;28;20220;-72
2021/12/14 00:15:02;;;;;;;44.47;11.47;;;;;;;4.67;100.00;101885.38;5006323;28;20207;-72
2021/12/14 00:17:21;;;;;;;44.13;12.07;;;;;;;4.68;100.00;101881.09;5004182;28;20267;-72
2021/12/14 00:19:51;;;;;;;42.53;12.07;;;;;;;4.69;100.00;101878.50;5005111;28;20961;-72
2021/12/14 00:22:26;;;;;;;42.07;13.10;;;;;;;4.69;100.00;101883.69;5005388;28;20189;-72
2021/12/14 00:24:51;;;;;;;44.17;13.23;;;;;;;4.71;100.00;101887.19;5005621;28;20223;-72
2021/12/14 00:27:18;;;;;;;45.27;12.80;;;;;;;4.70;100.00;101888.03;5006339;28;20200;-72
2021/12/14 00:29:48;;;;;;;53.13;13.23;;;;;;;4.71;100.00;101888.88;5005797;28;20761;-72
2021/12/14 00:32:19;;;;;;;53.77;13.90;;;;;;;4.70;100.00;101897.50;5007815;28;20208;-72
2021/12/14 00:34:49;;;;;;;45.37;12.93;;;;;;;4.71;100.00;101879.44;5009081;28;20207;-72
2021/12/14 00:37:19;;;;;;;53.17;12.93;;;;;;;4.71;100.00;101882.03;5009617;28;20205;-71
2021/12/14 00:39:49;;;;;;;54.27;13.87;;;;;;;4.68;100.00;101879.38;5008237;28;20228;-72
2021/12/14 00:42:16;;;;;;;43.63;13.70;;;;;;;4.70;100.00;101882.00;5004271;28;20208;-72
2021/12/14 00:44:42;;;;;;;41.33;12.87;;;;;;;4.68;100.00;101876.78;5024365;28;20320;-72
2021/12/14 00:47:09;;;;;;;45.90;13.43;;;;;;;4.71;100.00;101875.97;5010285;28;20236;-72
2021/12/14 00:49:35;;;;;;;48.97;14.93;;;;;;;4.69;100.00;101878.50;5008373;28;20231;-71
2021/12/14 00:52:07;;;;;;;60.23;14.40;;;;;;;4.68;100.00;101883.69;5009459;28;20732;-71
2021/12/14 00:54:34;;;;;;;41.10;12.87;;;;;;;4.65;100.00;101881.91;5009118;28;20196;-71
2021/12/14 00:57:01;;;;;;;44.50;13.93;;;;;;;4.64;100.00;101879.28;5010410;28;20212;-72
2021/12/14 00:59:27;;;;;;;52.30;13.23;;;;;;;4.64;100.00;101882.72;5007892;28;20221;-72
2021/12/14 01:01:56;;;;;;;44.87;13.37;;;;;;;4.63;100.00;101887.91;5008416;28;20223;-72
2021/12/14 01:04:27;;;;;;;45.37;13.53;;;;;;;4.60;100.00;101886.09;5011524;28;20226;-72
2021/12/14 01:06:55;;;;;;;46.70;13.80;;;;;;;4.60;100.00;101885.25;5008973;28;20209;-72
2021/12/14 01:09:26;;;;;;;46.90;13.73;;;;;;;4.58;100.00;101890.38;5009135;28;20745;-71
2021/12/14 01:11:57;;;;;;;55.43;13.93;;;;;;;4.59;100.00;101893.81;5009943;28;20200;-72
2021/12/14 01:14:31;;;;;;;52.80;13.93;;;;;;;4.57;100.00;101891.22;5012582;28;20777;-72
2021/12/14 01:17:10;;;;;;;49.27;13.50;;;;;;;4.58;100.00;101889.53;5008234;28;20817;-72
2021/12/14 01:19:38;;;;;;;45.03;13.00;;;;;;;4.57;100.00;101886.03;5007665;28;20224;-72
2021/12/14 01:22:32;;;;;;;55.33;14.53;;;;;;;4.58;100.00;101886.94;5006910;28;20218;-72
2021/12/14 01:25:09;;;;;;;41.23;13.70;;;;;;;4.57;100.00;101896.38;5007491;28;20717;-71
2021/12/14 01:27:41;;;;;;;54.00;15.17;;;;;;;4.57;100.00;101891.22;5008935;28;20212;-72
2021/12/14 01:30:15;;;;;;;37.47;13.43;;;;;;;4.55;100.00;101893.75;5005615;28;20216;-72
2021/12/14 01:32:46;;;;;;;42.37;14.57;;;;;;;4.53;100.00;101887.69;5006979;28;20218;-72
2021/12/14 01:35:15;;;;;;;48.83;14.83;;;;;;;4.54;100.00;101891.19;5010908;28;20249;-72
2021/12/14 01:37:59;;;;;;;49.87;15.23;;;;;;;4.55;100.00;101893.75;5007354;28;20255;-72
2021/12/14 01:43:21;;;;;;;39.17;13.77;;;;;;;4.56;100.00;101892.06;5006866;28;20207;-72
2021/12/14 01:45:48;;;;;;;48.33;15.57;;;;;;;4.55;100.00;101886.00;5008095;28;20211;-72
2021/12/14 01:48:17;;;;;;;43.60;14.83;;;;;;;4.55;100.00;101887.72;5007514;28;20208;-72
2021/12/14 01:51:04;;;;;;;47.60;14.50;;;;;;;4.53;100.00;101873.91;5000483;28;20204;-72
2021/12/14 01:53:54;;;;;;;44.73;14.63;;;;;;;4.53;100.00;101887.69;5005966;28;20212;-72
2021/12/14 01:56:26;;;;;;;42.97;15.23;;;;;;;4.53;100.00;101885.13;5006233;28;20846;-72
2021/12/14 01:58:56;;;;;;;52.73;15.13;;;;;;;4.53;100.00;101882.53;5025298;28;20688;-72
2021/12/14 02:01:28;;;;;;;49.13;14.60;;;;;;;4.49;100.00;101880.75;5012050;28;20279;-72
2021/12/14 02:03:57;;;;;;;48.20;14.27;;;;;;;4.51;100.00;101885.94;5024544;28;20983;-71
2021/12/14 02:06:28;;;;;;;49.10;14.80;;;;;;;4.50;100.00;101879.91;5004890;28;20709;-72
2021/12/14 02:09:00;;;;;;;39.07;14.23;;;;;;;4.51;100.00;101885.94;5007368;28;20776;-72
2021/12/14 02:11:33;;;;;;;43.63;14.30;;;;;;;4.51;100.00;101885.94;5006672;28;20288;-72
2021/12/14 02:14:00;;;;;;;43.00;14.73;;;;;;;4.52;100.00;101885.06;5008312;28;20204;-72
2021/12/14 02:16:27;;;;;;;48.40;15.10;;;;;;;4.50;100.00;101886.78;5007284;28;20678;-72
2021/12/14 02:18:59;;;;;;;45.20;15.77;;;;;;;4.50;100.00;101889.34;5006596;28;20222;-72
2021/12/14 02:21:28;;;;;;;52.70;15.37;;;;;;;4.50;100.00;101887.66;5008589;28;20224;-72
2021/12/14 02:23:57;;;;;;;45.90;14.80;;;;;;;4.52;100.00;101877.34;5023140;28;20308;-72
2021/12/14 02:26:27;;;;;;;45.00;14.03;;;;;;;4.52;100.00;101872.16;5007355;28;20570;-72
2021/12/14 02:28:55;;;;;;;44.83;14.90;;;;;;;4.52;100.00;101872.16;5004666;28;20216;-72
2021/12/14 02:31:25;;;;;;;43.40;14.90;;;;;;;4.52;100.00;101862.72;5005676;28;20243;-71
2021/12/14 02:33:54;;;;;;;49.30;15.70;;;;;;;4.51;100.00;101866.13;5007322;28;22106;-71
2021/12/14 02:36:24;;;;;;;50.40;15.03;;;;;;;4.52;100.00;101861.84;5008537;28;20418;-71
2021/12/14 02:39:05;;;;;;;50.70;16.63;;;;;;;4.51;100.00;101857.53;5007431;28;20868;-72
2021/12/14 02:41:44;;;;;;;41.13;15.17;;;;;;;4.49;100.00;101842.00;5006276;28;20212;-71
2021/12/14 02:44:10;;;;;;;49.97;14.53;;;;;;;4.49;100.00;101847.16;5007294;28;20220;-72
2021/12/14 02:46:41;;;;;;;47.43;15.20;;;;;;;4.48;100.00;101841.97;5006731;28;20819;-72
2021/12/14 02:49:13;;;;;;;48.73;15.63;;;;;;;4.48;100.00;101840.25;5006234;28;20236;-72
2021/12/14 02:51:42;;;;;;;38.03;14.53;;;;;;;4.47;100.00;101846.28;5009987;28;20212;-71
2021/12/14 02:54:15;;;;;;;48.43;14.23;;;;;;;4.48;100.00;101839.38;5008524;28;20839;-72
2021/12/14 02:56:46;;;;;;;44.30;15.20;;;;;;;4.47;100.00;101843.69;5006917;28;20332;-71
2021/12/14 02:59:16;;;;;;;47.03;15.13;;;;;;;4.47;100.00;101848.00;5007635;28;20223;-72
2021/12/14 03:01:45;;;;;;;44.53;14.47;;;;;;;4.48;100.00;101842.81;5003831;28;20220;-72
2021/12/14 03:04:14;;;;;;;45.93;14.30;;;;;;;4.47;100.00;101848.00;5006888;28;20283;-72
2021/12/14 03:06:47;;;;;;;48.77;15.60;;;;;;;4.48;100.00;101847.13;5002910;28;20291;-72
2021/12/14 03:09:33;;;;;;;50.53;14.60;;;;;;;4.47;100.00;101843.69;4998214;28;20343;-72
2021/12/14 03:12:02;;;;;;;50.90;15.33;;;;;;;4.47;100.00;101845.41;5000709;28;20353;-72
2021/12/14 03:14:28;;;;;;;42.07;15.23;;;;;;;4.48;100.00;101848.00;5006377;28;20192;-72
2021/12/14 03:16:55;;;;;;;40.67;14.00;;;;;;;4.48;100.00;101849.72;5006078;28;20212;-71
2021/12/14 03:19:22;;;;;;;50.87;14.97;;;;;;;4.46;100.00;101841.94;5005437;28;20623;-72
2021/12/14 03:21:49;;;;;;;48.93;15.50;;;;;;;4.46;100.00;101843.66;5005866;28;20201;-72
2021/12/14 03:24:19;;;;;;;37.27;14.47;;;;;;;4.46;100.00;101841.06;5008474;28;20290;-71
2021/12/14 03:26:51;;;;;;;38.97;15.20;;;;;;;4.47;100.00;101835.09;5005683;28;20215;-72
2021/12/14 03:29:21;;;;;;;43.87;15.10;;;;;;;4.45;100.00;101841.91;5005732;28;20225;-72
2021/12/14 03:31:52;;;;;;;33.47;14.20;;;;;;;4.46;100.00;101836.78;5003280;28;20220;-72
2021/12/14 03:34:29;;;;;;;39.57;14.70;;;;;;;4.46;100.00;101831.59;5004927;28;20208;-72
2021/12/14 03:36:58;;;;;;;38.60;13.93;;;;;;;4.47;100.00;101832.50;5003777;28;20291;-72
2021/12/14 03:39:29;;;;;;;39.60;13.83;;;;;;;4.47;100.00;101829.91;5005701;28;20683;-72
2021/12/14 03:41:59;;;;;;;40.87;14.17;;;;;;;4.45;100.00;101823.81;5005072;28;20205;-72
2021/12/14 03:44:29;;;;;;;40.07;14.20;;;;;;;4.45;100.00;101826.41;5005935;28;20213;-72
2021/12/14 03:46:59;;;;;;;37.63;13.80;;;;;;;4.45;100.00;101818.66;5005548;28;20741;-72
2021/12/14 03:49:30;;;;;;;41.23;14.80;;;;;;;4.44;100.00;101822.97;5007172;28;20232;-72
2021/12/14 03:51:59;;;;;;;41.60;14.67;;;;;;;4.46;100.00;101830.75;5005770;28;20212;-71
2021/12/14 03:54:28;;;;;;;43.20;15.23;;;;;;;4.45;100.00;101821.25;5009682;28;20256;-72
2021/12/14 03:56:56;;;;;;;41.73;15.10;;;;;;;4.43;100.00;101812.59;5005764;28;20682;-72
2021/12/14 03:59:27;;;;;;;41.63;14.67;;;;;;;4.46;100.00;101810.09;5005616;28;20230;-72
2021/12/14 04:01:54;;;;;;;37.90;14.93;;;;;;;4.44;100.00;101802.31;5007060;28;20208;-72
2021/12/14 04:04:26;;;;;;;35.97;14.03;;;;;;;4.44;100.00;101810.06;5007405;28;20209;-72
2021/12/14 04:06:55;;;;;;;44.27;14.30;;;;;;;4.44;100.00;101814.34;5008678;28;20777;-72
2021/12/14 04:09:25;;;;;;;36.47;13.60;;;;;;;4.43;100.00;101807.44;5011441;28;20225;-72
2021/12/14 04:11:53;;;;;;;33.73;13.23;;;;;;;4.42;100.00;101811.75;5026541;28;20215;-72
2021/12/14 04:14:21;;;;;;;43.23;14.57;;;;;;;4.44;100.00;101798.84;5010194;28;20705;-72
2021/12/14 04:16:50;;;;;;;41.10;14.40;;;;;;;4.44;100.00;101802.31;5009735;28;20729;-72
2021/12/14 04:19:20;;;;;;;36.37;13.87;;;;;;;4.43;100.00;101794.53;5008820;28;20250;-71
2021/12/14 04:21:51;;;;;;;38.53;14.23;;;;;;;4.43;100.00;101791.94;5009224;28;20205;-72
2021/12/14 04:24:23;;;;;;;40.20;13.63;;;;;;;4.42;100.00;101790.22;5011484;28;20201;-72
2021/12/14 04:26:51;;;;;;;36.13;13.40;;;;;;;4.44;100.00;101786.81;5009560;28;20208;-72
2021/12/14 04:29:19;;;;;;;39.03;13.70;;;;;;;4.43;100.00;101785.06;5009880;28;20212;-72
2021/12/14 04:31:47;;;;;;;36.60;13.33;;;;;;;4.42;100.00;101779.88;5008744;28;20312;-72
2021/12/14 04:34:17;;;;;;;35.47;13.37;;;;;;;4.40;100.00;101782.44;5010064;28;20193;-72
2021/12/14 04:36:46;;;;;;;33.83;12.60;;;;;;;4.39;100.00;101774.66;5006843;28;20291;-72
2021/12/14 04:39:35;;;;;;;41.33;13.63;;;;;;;4.41;100.00;101776.41;5010742;28;20309;-72
2021/12/14 04:53:35;;;;;;;32.60;11.63;;;;;;;4.39;100.00;101760.03;5009344;28;20213;-72
2021/12/14 04:56:05;;;;;;;33.30;12.63;;;;;;;4.41;100.00;101760.91;5004346;28;20196;-72
2021/12/14 04:58:34;;;;;;;34.73;12.70;;;;;;;4.38;100.00;101762.59;5008978;28;20209;-72
2021/12/14 05:01:05;;;;;;;34.83;12.13;;;;;;;4.37;100.00;101766.88;5005748;28;20268;-72
2021/12/14 05:03:39;;;;;;;30.37;11.43;;;;;;;4.39;100.00;101769.50;5008593;28;20677;-72
2021/12/14 05:06:14;;;;;;;32.80;12.33;;;;;;;4.38;100.00;101765.16;5003030;28;20236;-72
2021/12/14 05:11:29;;;;;;;29.23;11.83;;;;;;;4.37;100.00;101753.97;5009605;28;20211;-71
2021/12/14 05:14:02;;;;;;;32.67;12.37;;;;;;;4.35;100.00;101746.19;5022094;28;20218;-72
2021/12/14 05:16:38;;;;;;;28.27;12.00;;;;;;;4.34;100.00;101741.91;5024234;28;20255;-72
2021/12/14 05:19:09;;;;;;;30.73;10.93;;;;;;;4.32;100.00;101746.13;5008115;28;20684;-72
2021/12/14 05:21:40;;;;;;;38.83;12.33;;;;;;;4.32;100.00;101747.84;5006936;28;20214;-72
2021/12/14 05:24:12;;;;;;;23.77;11.40;;;;;;;4.31;100.00;101747.00;4981871;28;20243;-72
2021/12/14 05:26:48;;;;;;;30.13;11.00;;;;;;;4.30;100.00;101747.81;5003295;28;20255;-71
2021/12/14 05:29:16;;;;;;;28.70;11.40;;;;;;;4.31;100.00;101746.09;5005206;28;20248;-71
2021/12/14 05:31:48;;;;;;;30.83;11.30;;;;;;;4.29;100.00;101737.47;5004945;28;20261;-72
2021/12/14 05:34:18;;;;;;;27.27;11.00;;;;;;;4.28;100.00;101741.78;5007355;28;20605;-72
2021/12/14 05:36:49;;;;;;;25.83;10.63;;;;;;;4.28;100.00;101748.66;5005842;28;20197;-72
2021/12/14 05:39:30;;;;;;;25.73;10.80;;;;;;;4.28;100.00;101753.81;5004398;28;20307;-71
2021/12/14 05:44:54;;;;;;;28.73;12.03;;;;;;;4.26;100.00;101745.19;5005406;28;20312;-72
2021/12/14 05:47:24;;;;;;;29.73;11.60;;;;;;;4.25;100.00;101746.88;5001133;28;20200;-72
2021/12/14 05:50:14;;;;;;;27.40;11.50;;;;;;;4.24;100.00;101752.91;5120950;27;20603;-73
2021/12/14 05:52:41;;;;;;;32.80;11.67;;;;;;;4.24;100.00;101745.16;5101077;27;20198;-72
2021/12/14 05:55:14;;;;;;;27.53;10.93;;;;;;;4.23;100.00;101740.81;5095534;28;20203;-72
2021/12/14 05:57:41;;;;;;;23.57;9.90;;;;;;;4.22;100.00;101746.84;5087954;28;20227;-73
2021/12/14 06:00:11;;;;;;;29.20;10.90;;;;;;;4.22;100.00;101743.38;5089819;28;21034;-73
2021/12/14 06:02:44;;;;;;;25.33;10.30;;;;;;;4.20;100.00;101745.91;5088331;28;20205;-73
2021/12/14 06:05:15;;;;;;;30.13;12.50;;;;;;;4.20;100.00;101755.38;5090134;28;20202;-73
2021/12/14 06:07:43;;;;;;;33.37;12.23;;;;;;;4.17;100.00;101758.78;5094381;28;20204;-72
2021/12/14 06:10:11;;;;;;;24.03;10.07;;;;;;;4.16;100.00;101767.38;5086960;28;20238;-73
2021/12/14 06:12:42;;;;;;;27.80;10.17;;;;;;;4.15;100.00;101773.34;5091568;28;20195;-73
2021/12/14 06:15:16;;;;;;;31.77;9.83;;;;;;;4.14;100.00;101774.22;5101370;27;20543;-73
2021/12/14 06:17:42;;;;;;;24.60;9.90;;;;;;;4.12;100.00;101774.19;5097582;28;20225;-73
2021/12/14 06:20:35;;;;;;;29.83;9.97;;;;;;;4.12;100.00;101775.91;5099648;28;20225;-72
2021/12/14 06:23:07;;;;;;;25.13;10.27;;;;;;;4.11;100.00;101784.47;5115120;28;20277;-73
2021/12/14 06:26:04;;;;;;;21.43;9.50;;;;;;;4.10;100.00;101790.50;5097995;28;20198;-72
2021/12/14 06:28:31;;;;;;;20.63;9.23;;;;;;;4.09;100.00;101783.59;5094872;28;20312;-73
2021/12/14 06:31:01;;;;;;;24.20;8.83;;;;;;;4.09;100.00;101793.91;5107710;27;20637;-72
2021/12/14 06:33:30;;;;;;;26.13;9.33;;;;;;;4.09;100.00;101792.19;5104146;28;20719;-73
2021/12/14 06:36:01;;;;;;;19.90;8.80;;;;;;;4.09;100.00;101786.16;5116591;28;20208;-73
2021/12/14 06:38:30;;;;;;;18.87;8.10;;;;;;;4.10;100.00;101783.63;5093007;28;20194;-73
2021/12/14 06:41:09;;;;;;;21.40;8.83;;;;;;;4.09;100.00;101789.59;5107385;28;20221;-73
2021/12/14 06:43:42;;;;;;;18.30;8.40;;;;;;;4.09;100.00;101781.84;5104100;27;20283;-72
2021/12/14 06:46:15;;;;;;;24.67;9.37;;;;;;;4.11;100.00;101784.47;5101433;28;20666;-73
2021/12/14 06:48:44;;;;;;;22.10;8.90;;;;;;;4.11;100.00;101784.47;5096657;28;20218;-73
2021/12/14 06:51:15;;;;;;;27.77;10.07;;;;;;;4.10;100.00;101786.19;5093173;28;20205;-72
2021/12/14 06:53:53;;;;;;;23.87;9.10;;;;;;;4.10;100.00;101778.44;5101836;28;20608;-72
2021/12/14 06:56:40;;;;;;;17.63;8.93;;;;;;;4.10;100.00;101780.19;5097731;28;20205;-72
2021/12/14 06:59:27;;;;;;;21.07;9.23;;;;;;;4.09;100.00;101783.59;5090084;28;20232;-72
2021/12/14 07:02:11;;;;;;;22.90;10.00;;;;;;;4.11;100.00;101789.63;5092948;28;20721;-73
2021/12/14 07:04:57;;;;;;;25.43;9.63;;;;;;;4.12;100.00;101783.66;5102875;28;20209;-73
2021/12/14 07:07:28;;;;;;;26.50;9.87;;;;;;;4.12;100.00;101787.09;5094940;28;20752;-72
2021/12/14 07:09:58;;;;;;;18.70;8.83;;;;;;;4.13;100.00;101787.94;5083768;28;20262;-73
2021/12/14 07:12:28;;;;;;;22.50;8.33;;;;;;;4.13;100.00;101788.84;5088048;28;20206;-73
2021/12/14 07:15:11;;;;;;;22.47;8.67;;;;;;;4.15;100.00;101786.25;5100050;28;20232;-73
2021/12/14 07:17:43;;;;;;;20.50;7.40;;;;;;;4.14;100.00;101787.97;5097846;28;20200;-73
2021/12/14 07:20:21;;;;;;;16.10;7.47;;;;;;;4.16;100.00;101788.88;5093747;28;20218;-73
2021/12/14 07:22:51;;;;;;;21.60;8.00;;;;;;;4.17;100.00;101780.31;5097362;28;20198;-73
2021/12/14 07:25:23;;;;;;;21.80;7.60;;;;;;;4.17;100.00;101779.44;5086285;28;20209;-73
2021/12/14 07:27:52;;;;;;;21.77;7.93;;;;;;;4.18;100.00;101781.16;5103044;28;20924;-73
2021/12/14 07:30:21;;;;;;;18.00;8.20;;;;;;;4.17;100.00;101774.28;5090200;28;20224;-73
2021/12/14 07:32:53;;;;;;;17.47;8.23;;;;;;;4.17;100.00;101772.56;5094062;28;20558;-73
2021/12/14 07:35:31;;;;;;;18.83;7.40;;;;;;;4.18;100.00;101763.97;5092418;28;20214;-73
2021/12/14 07:38:05;;;;;;;16.93;6.93;;;;;;;4.22;100.00;101776.94;5090336;28;20216;-73
2021/12/14 07:40:39;;;;;;;23.60;8.23;;;;;;;4.21;100.00;101770.03;5098085;28;20702;-73
2021/12/14 07:43:09;;;;;;;18.43;7.93;;;;;;;4.23;100.00;101770.94;5090558;28;20735;-73
2021/12/14 07:45:35;;;;;;;18.20;7.60;;;;;;;4.22;100.00;101762.34;5083431;28;20673;-73
2021/12/14 07:48:02;;;;;;;18.93;7.87;;;;;;;4.23;100.00;101763.19;5092183;28;20259;-73
2021/12/14 07:50:41;;;;;;;25.30;9.10;;;;;;;4.24;100.00;101764.91;5098912;28;20221;-73
2021/12/14 07:53:09;;;;;;;27.47;12.90;;;;;;;4.23;100.00;101774.38;5091535;28;20198;-73
2021/12/14 07:55:40;;;;;;;33.30;19.20;;;;;;;4.23;100.00;101771.78;5092939;28;20201;-73
2021/12/14 07:58:06;;;;;;;30.20;14.97;;;;;;;4.22;100.00;101770.06;5096755;28;20205;-73
2021/12/14 08:00:35;;;;;;;23.20;10.87;;;;;;;4.24;100.00;101775.25;5090996;28;20240;-73
2021/12/14 08:03:04;;;;;;;24.80;10.63;;;;;;;4.23;100.00;101768.34;5091751;28;20202;-72
2021/12/14 08:05:33;;;;;;;19.10;9.33;;;;;;;4.22;100.00;101764.03;5079874;28;20199;-73
2021/12/14 08:08:03;;;;;;;19.37;9.43;;;;;;;4.23;100.00;101765.78;5093237;28;20197;-73
2021/12/14 08:10:37;;;;;;;20.23;10.23;;;;;;;4.21;100.00;101776.06;5095774;28;20235;-73
2021/12/14 08:13:08;;;;;;;26.50;11.47;;;;;;;4.23;100.00;101778.69;5088012;28;20197;-73
2021/12/14 08:15:39;;;;;;;25.50;11.30;;;;;;;4.20;100.00;101784.63;5096691;28;20202;-73
2021/12/14 08:18:12;;;;;;;22.30;9.77;;;;;;;4.21;100.00;101782.94;5097943;27;20206;-72
2021/12/14 08:20:44;;;;;;;21.40;10.13;;;;;;;4.21;100.00;101783.81;5081921;28;20229;-73
2021/12/14 08:23:16;;;;;;;22.53;10.07;;;;;;;4.23;100.00;101789.00;5096206;28;20619;-73
2021/12/14 08:25:44;;;;;;;20.60;9.87;;;;;;;4.25;100.00;101797.66;5094949;28;20293;-73
2021/12/14 08:28:11;;;;;;;20.33;9.07;;;;;;;4.25;100.00;101801.09;5096847;28;20205;-73
2021/12/14 08:30:43;;;;;;;20.17;9.07;;;;;;;4.26;100.00;101800.25;5093788;28;20602;-72
2021/12/14 08:33:19;;;;;;;23.13;9.43;;;;;;;4.28;100.00;101806.31;5091284;28;20203;-73
2021/12/14 08:35:45;;;;;;;22.57;8.67;;;;;;;4.29;100.00;101820.09;5097545;28;20201;-73
2021/12/14 08:38:15;;;;;;;23.00;10.17;;;;;;;4.30;100.00;101814.97;5083782;28;20218;-73
2021/12/14 08:40:50;;;;;;;27.63;11.60;;;;;;;4.31;100.00;101810.66;5095765;28;20719;-73
2021/12/14 08:43:24;;;;;;;26.53;12.23;;;;;;;4.33;100.00;101812.44;5090504;28;20653;-72
2021/12/14 08:45:53;;;;;;;25.33;11.93;;;;;;;4.34;100.00;101815.88;5093867;28;20206;-73
2021/12/14 08:48:23;;;;;;;31.43;13.93;;;;;;;4.35;100.00;101815.91;5090292;28;20270;-73
2021/12/14 08:50:53;;;;;;;27.93;12.13;;;;;;;4.38;100.00;101815.13;5091044;28;20252;-73
2021/12/14 08:53:21;;;;;;;22.33;10.97;;;;;;;4.38;100.00;101820.28;5092478;28;20208;-73
2021/12/14 08:55:54;;;;;;;25.90;10.87;;;;;;;4.41;100.00;101819.47;5080693;28;20194;-72
2021/12/14 08:58:22;;;;;;;29.20;11.77;;;;;;;4.42;100.00;101823.78;5093064;28;20307;-72
2021/12/14 09:00:52;;;;;;;24.13;10.93;;;;;;;4.44;100.00;101816.94;5087780;28;20738;-73
2021/12/14 09:03:31;;;;;;;25.50;11.57;;;;;;;4.44;100.00;101809.19;5098915;28;20208;-73
2021/12/14 09:06:03;;;;;;;27.73;11.73;;;;;;;4.44;100.00;101802.31;5088349;28;20197;-73
2021/12/14 09:08:29;;;;;;;25.03;11.13;;;;;;;4.46;100.00;101804.91;5094330;28;20205;-73
2021/12/14 09:10:58;;;;;;;28.93;11.83;;;;;;;4.46;100.00;101803.19;5099557;28;20217;-72
2021/12/14 09:13:27;;;;;;;26.73;12.47;;;;;;;4.48;100.00;101805.81;5096255;28;20555;-73
2021/12/14 09:15:58;;;;;;;24.50;11.30;;;;;;;4.48;100.00;101816.13;5096511;28;20197;-73
2021/12/14 09:18:27;;;;;;;27.57;12.60;;;;;;;4.49;100.00;101823.91;5091642;28;20281;-73
2021/12/14 09:20:56;;;;;;;26.97;11.20;;;;;;;4.51;100.00;101819.66;5091264;28;21881;-73
2021/12/14 09:23:28;;;;;;;26.97;12.33;;;;;;;4.52;100.00;101818.81;5090964;28;20214;-72
2021/12/14 09:25:57;;;;;;;28.40;11.80;;;;;;;4.53;100.00;101825.69;5091604;28;20245;-72
2021/12/14 09:28:24;;;;;;;28.23;11.63;;;;;;;4.56;100.00;101824.91;5094434;28;20204;-73
2021/12/14 09:30:55;;;;;;;28.57;12.53;;;;;;;4.59;100.00;101822.38;5093341;28;20232;-73
2021/12/14 09:33:22;;;;;;;28.27;11.77;;;;;;;4.60;100.00;101810.34;5087048;28;20205;-73
2021/12/14 09:35:49;;;;;;;24.53;11.47;;;;;;;4.64;100.00;101814.69;5078494;28;20258;-73
2021/12/14 09:38:19;;;;;;;26.70;12.93;;;;;;;4.66;100.00;101816.47;5085787;28;20253;-73
2021/12/14 09:40:49;;;;;;;29.17;12.10;;;;;;;4.68;100.00;101812.19;5076665;28;20237;-73
2021/12/14 09:43:18;;;;;;;26.37;11.53;;;;;;;4.71;100.00;101809.69;5093915;28;20228;-72
2021/12/14 09:45:53;;;;;;;25.83;11.73;;;;;;;4.72;100.00;101808.81;5079325;28;20194;-72
2021/12/14 09:48:23;;;;;;;24.07;10.90;;;;;;;4.74;100.00;101803.69;5092505;28;20216;-72
2021/12/14 09:50:50;;;;;;;24.13;10.23;;;;;;;4.73;100.00;101792.47;5084987;28;20214;-72
2021/12/14 09:53:20;;;;;;;25.83;11.43;;;;;;;4.74;100.00;101786.44;5087947;28;20201;-72
2021/12/14 09:55:49;;;;;;;23.70;10.63;;;;;;;4.76;100.00;101791.66;5079759;28;20194;-72
2021/12/14 09:58:22;;;;;;;23.73;11.57;;;;;;;4.76;100.00;101775.28;5088501;28;20208;-72
2021/12/14 10:00:54;;;;;;;24.07;11.10;;;;;;;4.79;100.00;101783.97;5070734;28;20226;-73
2021/12/14 10:03:20;;;;;;;31.07;12.00;;;;;;;4.80;100.00;101777.97;5084094;28;20206;-72
2021/12/14 10:05:51;;;;;;;25.77;11.27;;;;;;;4.82;100.00;101772.78;5075528;28;20194;-73
2021/12/14 10:08:22;;;;;;;23.13;11.13;;;;;;;4.82;100.00;101771.09;5093108;28;20696;-72
2021/12/14 10:10:58;;;;;;;25.40;10.83;;;;;;;4.85;100.00;101767.69;5082228;28;20226;-72
2021/12/14 10:13:26;;;;;;;23.70;10.93;;;;;;;4.85;100.00;101760.78;5072683;28;20194;-72
2021/12/14 10:15:56;;;;;;;21.30;9.87;;;;;;;4.83;100.00;101759.91;5080213;28;20204;-72
2021/12/14 10:18:27;;;;;;;18.77;9.77;;;;;;;4.82;100.00;101762.44;5081832;28;20230;-72
2021/12/14 10:20:57;;;;;;;23.90;10.67;;;;;;;4.83;100.00;101759.91;5081866;28;20221;-72
2021/12/14 10:23:25;;;;;;;21.57;10.43;;;;;;;4.81;100.00;101751.25;5091776;28;20216;-72
2021/12/14 10:25:54;;;;;;;20.80;10.67;;;;;;;4.80;100.00;101740.88;5080221;28;20566;-73
2021/12/14 10:28:22;;;;;;;24.63;10.53;;;;;;;4.78;100.00;101740.84;5082340;28;20205;-72
2021/12/14 10:30:56;;;;;;;21.60;10.50;;;;;;;4.78;100.00;101740.84;5087114;28;20225;-73
2021/12/14 10:33:24;;;;;;;19.80;9.43;;;;;;;4.78;100.00;101740.84;5082550;28;20190;-72
2021/12/14 10:35:56;;;;;;;20.63;10.00;;;;;;;4.77;100.00;101746.00;5082606;28;20691;-72
2021/12/14 10:38:36;;;;;;;18.83;9.80;;;;;;;4.78;100.00;101732.25;5089914;28;20209;-72
2021/12/14 10:43:51;;;;;;;25.17;10.20;;;;;;;4.80;100.00;101751.22;5093580;28;20198;-73
2021/12/14 10:46:22;;;;;;;20.20;9.70;;;;;;;4.81;100.00;101758.16;5083705;28;20205;-72
2021/12/14 10:48:51;;;;;;;23.57;9.97;;;;;;;4.82;100.00;101750.41;5085747;28;20213;-72
2021/12/14 10:51:22;;;;;;;20.63;9.97;;;;;;;4.82;100.00;101734.91;5087376;28;20217;-72
2021/12/14 10:53:54;;;;;;;18.87;9.70;;;;;;;4.84;100.00;101740.97;5085515;28;20201;-73
2021/12/14 10:56:24;;;;;;;18.73;9.87;;;;;;;4.85;100.00;101737.53;5077435;28;20638;-73
2021/12/14 10:58:54;;;;;;;19.63;10.17;;;;;;;4.87;100.00;101735.84;5088500;28;20802;-73
2021/12/14 11:01:29;;;;;;;22.70;10.80;;;;;;;4.88;100.00;101732.41;5084197;28;20202;-73
2021/12/14 11:03:59;;;;;;;24.07;11.93;;;;;;;4.89;100.00;101739.31;5093363;28;20201;-72
2021/12/14 11:06:29;;;;;;;22.63;12.27;;;;;;;4.92;100.00;101748.81;5079941;28;20206;-72
2021/12/14 11:09:38;;;;;;;22.20;10.47;;;;;;;4.91;100.00;101755.72;5093080;28;20607;-73
2021/12/14 11:11:50;;;;;;;20.23;10.27;;;;;;;4.93;100.00;101754.03;5089685;28;20206;-72
2021/12/14 11:14:20;;;;;;;22.07;11.20;;;;;;;4.96;100.00;101752.31;5082918;28;20218;-72
2021/12/14 11:19:38;;;;;;;19.40;9.13;;;;;;;4.96;100.00;101760.97;5086535;28;20223;-73
2021/12/14 11:22:11;;;;;;;19.17;9.50;;;;;;;4.95;100.00;101755.78;5103511;28;20236;-73
2021/12/14 11:24:40;;;;;;;21.60;9.43;;;;;;;4.95;100.00;101750.59;5084890;28;20186;-73
2021/12/14 11:27:13;;;;;;;19.77;9.17;;;;;;;4.92;100.00;101754.88;5081721;28;20206;-73
2021/12/14 11:29:39;;;;;;;18.10;8.90;;;;;;;4.91;100.00;101758.31;5093475;28;20214;-73
2021/12/14 11:32:08;;;;;;;17.23;9.10;;;;;;;4.92;100.00;101757.47;5103272;28;20197;-72
2021/12/14 11:34:36;;;;;;;18.07;9.37;;;;;;;4.90;100.00;101748.81;5084371;28;20706;-72
2021/12/14 11:37:09;;;;;;;21.03;9.93;;;;;;;4.92;100.00;101748.81;5078689;28;20206;-72
2021/12/14 11:39:38;;;;;;;19.23;10.03;;;;;;;4.91;100.00;101736.78;5077069;28;20222;-73
2021/12/14 11:42:07;;;;;;;16.20;9.07;;;;;;;4.90;100.00;101730.72;5094728;28;20202;-72
2021/12/14 11:44:36;;;;;;;17.37;9.53;;;;;;;4.92;100.00;101734.22;5093799;28;20702;-72
2021/12/14 11:47:22;;;;;;;16.00;9.33;;;;;;;4.91;100.00;101724.72;5094742;28;20194;-73
2021/12/14 11:49:52;;;;;;;17.40;9.27;;;;;;;4.88;100.00;101723.78;5090921;28;20226;-73
2021/12/14 11:52:41;;;;;;;17.50;9.83;;;;;;;4.90;100.00;101727.25;5094855;28;20209;-73
2021/12/14 11:55:26;;;;;;;15.70;8.90;;;;;;;4.89;100.00;101725.50;5088837;28;20262;-73
2021/12/14 11:58:03;;;;;;;19.70;9.67;;;;;;;4.89;100.00;101722.94;5087923;28;20247;-72